Tancredo Neves International Airport
SBCF : now visible

Airfield :











YOU CAN JOIN US ON...

 
LOGIN :

Register | Disclaimer

   EN    FR    IT 

 









Legend :    VFR   Marginal VFR   IFR   Intensive IFR   Very Intensive IFR
Visi :
Ceiling :
>= 8 km
>= 3000ft
5 to 8 km
1000 to 3000 ft
1500m to 5 km
500 to 1000 ft
800 to 1500m
200 to 500 ft
< 800m
< 200 ft
Symbols :   Thunderstorms  Fog  Heavy snow  Heavy precipitations  Wind > 20 kt







- Airport Elevation : 2715 ft
- IATA code : CNF


SBCF - Tancredo Neves International

CURRENT METAR :
  • 160900Z 31007KT 9999 BKN030 FEW035TCU BKN100 21/19 Q1014

EXPIRED METARs :
  • 160800Z 00000KT 9999 SCT030 BKN100 21/20 Q1013
  • 160700Z 16003KT CAVOK 20/19 Q1014

TAF TAF SBCF
Valid from the 16 at 06:00 until the 17 at 06:00 UTC


160200Z 1606/1706 10005KT CAVOK TX26/1620Z TN20/1705Z
BECMG 1612/1614 09005KT 7000 SCT030
PROB30 1614/1617 4000 TSRA BKN030 FEW035CB
BECMG 1618/1620 07005KT FEW030
BECMG 1700/1702 12007KT FEW020 RMK PDE
SBBS FIR / South America



MET'MAP, your aeronautical weather chart ! - Copyright ORBIFLY December 2007 - Disclaimer

ORBIFLY MET'MAP TEAM :

Programming & Development : Alexandra Zaïnal
Concept & Development : Baudouin d'Aumeries
Co-Development & Prog : Marc-Olivier Méhu
Technical & hardware support : Manuel Goepfert

Contact : metmap@orbifly.com




SOURCES & CREDITS :

   NOAA       Earth
Advisory